Terminal Aerodrome Forecast
Issued by NWS

Home | Current Version | Previous Version | Text Only | Print | Product List | Glossary On
Versions: 1 2 3 4 5 6 7 8 9 10 11 12 13 14 15 16 17 18 19 20
350
FTUS45 KMSO 161731
TAFSMN
TAF
KSMN 161731Z 1618/1718 00000KT P6SM FEW004 BKN070
     FM162000 00000KT P6SM SCT070
     FM171400 00000KT 3SM BR SCT006
     FM171700 00000KT P6SM BKN070=

USA.gov is the U.S. government's official web portal to all federal, state and local government web resources and services.